Time;durP1;ratioP1;P1;durP2;ratioP2;P2;SDS_P1;SDS_P2;PMS_P1;PMS_P2;Temp;Humidity;BMP_temperature;BMP_pressure;BME280_temperature;BME280_humidity;BME280_pressure;Samples;Min_cycle;Max_cycle;Signal;HPM_P1;HPM_P2
2023/09/11 00:02:07;;;;;;;13.37;8.80;;;;;;;;;;5014213;28;20422;-69
2023/09/11 00:04:33;;;;;;;11.60;10.50;;;;;;;;;;5014377;28;20971;-69
2023/09/11 00:07:01;;;;;;;10.23;9.03;;;;;;;;;;5013951;28;20922;-70
2023/09/11 00:09:27;;;;;;;13.40;11.77;;;;;;;;;;5014414;28;20469;-70
2023/09/11 00:11:53;;;;;;;12.33;10.30;;;;;;;;;;5001352;28;20801;-69
2023/09/11 00:14:19;;;;;;;10.70;9.60;;;;;;;;;;4994654;28;20411;-69
2023/09/11 00:16:45;;;;;;;11.93;10.43;;;;;;;;;;4994629;28;20785;-69
2023/09/11 00:19:12;;;;;;;13.70;11.50;;;;;;;;;;4994514;28;20448;-69
2023/09/11 00:21:38;;;;;;;10.63;9.53;;;;;;;;;;4992020;28;20432;-69
2023/09/11 00:24:04;;;;;;;10.93;9.93;;;;;;;;;;4994236;28;20465;-69
2023/09/11 00:26:30;;;;;;;12.70;9.50;;;;;;;;;;4994484;28;20467;-69
2023/09/11 00:28:56;;;;;;;13.30;10.20;;;;;;;;;;4994407;28;20848;-69
2023/09/11 00:31:22;;;;;;;10.97;9.80;;;;;;;;;;4994519;28;20460;-69
2023/09/11 00:33:48;;;;;;;18.50;11.40;;;;;;;;;;5001423;28;20466;-70
2023/09/11 00:36:14;;;;;;;12.83;11.53;;;;;;;;;;5013813;28;20422;-69
2023/09/11 00:38:39;;;;;;;12.70;11.40;;;18.00;79.70;;;;;;5013701;28;20441;-69
2023/09/11 00:41:05;;;;;;;10.90;9.80;;;17.90;68.70;;;;;;5013497;28;20517;-69
2023/09/11 00:43:30;;;;;;;12.50;10.70;;;17.90;68.70;;;;;;5013417;28;20184;-70
2023/09/11 00:45:57;;;;;;;10.33;9.33;;;17.90;69.80;;;;;;5013675;28;20262;-69
2023/09/11 00:48:23;;;;;;;11.60;10.50;;;17.80;71.10;;;;;;5013548;28;20223;-69
2023/09/11 00:50:50;;;;;;;9.97;8.93;;;17.90;70.80;;;;;;5013262;28;20423;-69
2023/09/11 00:53:16;;;;;;;12.37;9.53;;;17.90;69.30;;;;;;5013750;28;20415;-70
2023/09/11 00:55:44;;;;;;;14.87;11.90;;;17.80;70.30;;;;;;5013301;28;20466;-69
2023/09/11 00:58:10;;;;;;;11.23;9.03;;;17.80;70.90;;;;;;5013793;28;20466;-69
2023/09/11 01:00:35;;;;;;;13.90;10.00;;;17.80;70.90;;;;;;5012120;28;20466;-71
2023/09/11 01:03:01;;;;;;;10.87;8.93;;;17.80;71.70;;;;;;5013404;28;20184;-70
2023/09/11 01:05:29;;;;;;;11.70;10.50;;;17.80;71.50;;;;;;5013142;28;20224;-69
2023/09/11 01:07:55;;;;;;;13.50;12.20;;;17.80;71.80;;;;;;5012727;28;20208;-69
2023/09/11 01:10:20;;;;;;;11.80;10.60;;;17.80;71.50;;;;;;5011816;28;20792;-69
2023/09/11 01:12:46;;;;;;;12.77;11.50;;;17.70;72.70;;;;;;5013275;28;20411;-69
2023/09/11 01:15:11;;;;;;;12.07;10.00;;;17.70;72.90;;;;;;5013218;28;20184;-70
2023/09/11 01:17:50;;;;;;;11.50;10.47;;;17.80;72.50;;;;;;5012793;28;20219;-71
2023/09/11 01:20:39;;;;;;;12.50;10.33;;;17.80;73.30;;;;;;5013103;28;20651;-70
2023/09/11 01:23:53;;;;;;;12.60;11.40;;;17.70;73.10;;;;;;5001037;28;20439;-69
2023/09/11 01:26:52;;;;;;;12.87;11.57;;;17.70;73.80;;;;;;4983992;28;20431;-69
2023/09/11 01:29:30;;;;;;;15.43;11.60;;;17.70;74.60;;;;;;4993448;28;21008;-69
2023/09/11 01:31:59;;;;;;;12.27;11.10;;;17.60;75.50;;;;;;4993037;28;20490;-70
2023/09/11 01:34:24;;;;;;;13.83;11.90;;;17.60;76.00;;;;;;4993026;28;20414;-69
2023/09/11 01:36:50;;;;;;;12.43;11.10;;;17.60;76.40;;;;;;4993529;28;20416;-69
2023/09/11 01:39:16;;;;;;;12.30;11.10;;;17.60;76.70;;;;;;4993113;28;20580;-70
2023/09/11 01:41:46;;;;;;;13.27;11.10;;;17.50;77.10;;;;;;4992910;28;20558;-69
2023/09/11 01:44:30;;;;;;;13.90;10.80;;;17.50;78.30;;;;;;4993548;28;20533;-69
2023/09/11 01:46:57;;;;;;;13.13;11.93;;;17.50;78.40;;;;;;4993186;28;20407;-70
2023/09/11 01:49:24;;;;;;;11.07;9.80;;;17.50;79.30;;;;;;4992937;28;21009;-69
2023/09/11 01:51:55;;;;;;;13.17;11.83;;;17.50;80.10;;;;;;4999494;28;20422;-70
2023/09/11 01:54:21;;;;;;;13.47;10.90;;;17.50;80.70;;;;;;5012577;28;20415;-70
2023/09/11 01:56:47;;;;;;;15.83;11.57;;;;;;;;;;5012239;28;20422;-70
2023/09/11 01:59:14;;;;;;;12.47;11.27;;;;;;;;;;5012434;28;20426;-70
2023/09/11 02:01:40;;;;;;;17.40;11.60;;;;;;;;;;5011613;28;20417;-70
2023/09/11 02:04:06;;;;;;;15.33;13.13;;;;;;;;;;4991803;28;20463;-70
2023/09/11 02:06:32;;;;;;;12.80;11.40;;;;;;;;;;4992618;28;20463;-71
2023/09/11 02:08:58;;;;;;;14.20;12.80;;;;;;;;;;4992537;28;20455;-71
2023/09/11 02:11:24;;;;;;;13.83;12.43;;;;;;;;;;4992495;28;20943;-69
2023/09/11 02:13:51;;;;;;;12.57;11.30;;;;;;;;;;4992721;28;20934;-69
2023/09/11 02:16:17;;;;;;;12.63;11.33;;;;;;;;;;4997421;28;20419;-70
2023/09/11 02:18:43;;;;;;;13.23;11.10;;;;;;;;;;5012217;28;20561;-69
2023/09/11 02:21:09;;;;;;;14.20;12.70;;;;;;;;;;5010640;28;20501;-69
2023/09/11 02:23:35;;;;;;;14.97;13.20;;;;;;;;;;5012235;28;21021;-71
2023/09/11 02:26:01;;;;;;;14.37;12.97;;;;;;;;;;5011860;28;20560;-70
2023/09/11 02:28:27;;;;;;;15.77;13.73;;;;;;;;;;5012046;28;20423;-70
2023/09/11 02:30:54;;;;;;;11.37;10.37;;;;;;;;;;5011711;28;20411;-70
2023/09/11 02:33:20;;;;;;;14.87;11.33;;;;;;;;;;5012210;28;20419;-69
2023/09/11 02:35:45;;;;;;;14.23;11.80;;;;;;;;;;5012274;28;20426;-69
2023/09/11 02:38:12;;;;;;;13.00;11.70;;;;;;;;;;5011683;28;20501;-70
2023/09/11 02:40:38;;;;;;;16.20;13.37;;;;;;;;;;4996893;28;20953;-70
2023/09/11 02:43:04;;;;;;;13.50;12.10;;;;;;;;;;5012609;28;20411;-70
2023/09/11 02:45:30;;;;;;;15.83;11.57;;;;;;;;;;4996665;28;20466;-70
2023/09/11 02:47:56;;;;;;;17.03;11.43;;;;;;;;;;4995102;28;20851;-70
2023/09/11 02:50:23;;;;;;;14.50;12.40;;;;;;;;;;4994686;28;20427;-70
2023/09/11 02:52:49;;;;;;;13.37;12.07;;;;;;;;;;4996220;28;20404;-71
2023/09/11 02:55:15;;;;;;;12.90;11.13;;;;;;;;;;4996387;28;20407;-70
2023/09/11 02:57:41;;;;;;;14.07;12.57;;;;;;;;;;5015708;28;20464;-70
2023/09/11 03:00:10;;;;;;;12.87;11.57;;;;;;;;;;5016178;28;20461;-69
2023/09/11 03:02:36;;;;;;;14.50;10.20;;;;;;;;;;5015606;28;20434;-69
2023/09/11 03:05:02;;;;;;;13.00;11.03;;;;;;;;;;5015531;28;20466;-69
2023/09/11 03:07:28;;;;;;;14.33;12.40;;;;;;;;;;5015569;28;20482;-69
2023/09/11 03:09:54;;;;;;;14.60;13.10;;;;;;;;;;5015803;28;20485;-69
2023/09/11 03:12:20;;;;;;;12.67;11.40;;;;;;;;;;5015302;28;20553;-70
2023/09/11 03:14:46;;;;;;;12.50;11.10;;;;;;;;;;5015166;28;20477;-70
2023/09/11 03:17:14;;;;;;;13.17;11.37;;;;;;;;;;5015296;28;20422;-69
2023/09/11 03:19:39;;;;;;;15.30;13.70;;;;;;;;;;5003009;28;20442;-69
2023/09/11 03:22:05;;;;;;;12.30;11.17;;;;;;;;;;4995458;28;20415;-69
2023/09/11 03:24:31;;;;;;;12.97;11.67;;;;;;;;;;4995736;28;20529;-70
2023/09/11 03:26:57;;;;;;;18.03;14.90;;;;;;;;;;4995691;28;20439;-69
2023/09/11 03:29:23;;;;;;;15.73;14.13;;;;;;;;;;4995633;28;20489;-70
2023/09/11 03:31:49;;;;;;;12.70;11.50;;;;;;;;;;4995381;28;20431;-69
2023/09/11 03:34:15;;;;;;;14.70;13.23;;;;;;;;;;4995654;28;20443;-69
2023/09/11 03:36:41;;;;;;;14.37;12.93;;;;;;;;;;4996000;28;20428;-70
2023/09/11 03:39:07;;;;;;;14.00;12.60;;;;;;;;;;4995397;28;20506;-69
2023/09/11 03:41:33;;;;;;;13.33;11.93;;;;;;;;;;4995106;28;20451;-70
2023/09/11 03:43:59;;;;;;;15.03;13.53;;;;;;;;;;4995308;28;20866;-69
2023/09/11 03:46:25;;;;;;;11.50;10.40;;;;;;;;;;4995438;28;20404;-69
2023/09/11 03:48:51;;;;;;;14.30;12.70;;;;;;;;;;5003580;28;20466;-69
2023/09/11 03:51:17;;;;;;;13.57;12.17;;;;;;;;;;5014645;28;20415;-70
2023/09/11 03:53:44;;;;;;;11.93;10.80;;;;;;;;;;5014488;28;20756;-68
2023/09/11 03:56:10;;;;;;;12.70;11.40;;;;;;;;;;5014653;28;20413;-70
2023/09/11 03:58:36;;;;;;;14.47;11.63;;;;;;;;;;4995457;28;20455;-68
2023/09/11 04:01:02;;;;;;;11.47;10.37;;;;;;;;;;4994485;28;20900;-70
2023/09/11 04:03:28;;;;;;;15.03;13.53;;;;;;;;;;4995033;28;20470;-68
2023/09/11 04:05:54;;;;;;;16.57;13.97;;;;;;;;;;4995069;28;20463;-68
2023/09/11 04:08:20;;;;;;;14.13;12.77;;;;;;;;;;4994785;28;20544;-68
2023/09/11 04:10:46;;;;;;;13.87;12.60;;;;;;;;;;4994669;28;20752;-68
2023/09/11 04:13:12;;;;;;;14.40;12.37;;;;;;;;;;4994881;28;20813;-68
2023/09/11 04:15:38;;;;;;;13.60;12.40;;;;;;;;;;4995261;28;20966;-68
2023/09/11 04:18:04;;;;;;;13.87;12.43;;;;;;;;;;4996985;28;20959;-68
2023/09/11 04:20:33;;;;;;;13.67;12.37;;;;;;;;;;5006835;28;20444;-69
2023/09/11 04:23:02;;;;;;;13.93;11.67;;;;;;;;;;4994835;28;20416;-69
2023/09/11 04:25:28;;;;;;;14.53;13.03;;;;;;;;;;4994837;28;20552;-67
2023/09/11 04:27:54;;;;;;;15.47;13.83;;;;;;;;;;4994721;28;20533;-69
2023/09/11 04:30:20;;;;;;;14.50;13.17;;;;;;;;;;4994510;28;20522;-69
2023/09/11 04:32:46;;;;;;;14.07;12.73;;;;;;;;;;4994785;28;20419;-68
2023/09/11 04:35:12;;;;;;;14.90;12.40;;;;;;;;;;4994504;28;20416;-69
2023/09/11 04:37:38;;;;;;;14.93;12.30;;;;;;;;;;4994367;28;20432;-68
2023/09/11 04:40:05;;;;;;;14.47;12.97;;;;;;;;;;4994234;28;20495;-69
2023/09/11 04:42:31;;;;;;;20.30;14.67;;;;;;;;;;4994188;28;20432;-69
2023/09/11 04:45:00;;;;;;;17.73;15.93;;;;;;;;;;5004909;28;20962;-69
2023/09/11 04:47:30;;;;;;;16.70;14.90;;;;;;;;;;4998183;28;20447;-70
2023/09/11 04:49:56;;;;;;;17.57;15.87;;;;;;;;;;4994004;28;20411;-71
2023/09/11 04:52:22;;;;;;;15.67;14.13;;;;;;;;;;4992593;28;20427;-69
2023/09/11 04:54:48;;;;;;;13.93;10.60;;;;;;;;;;4994123;28;20796;-69
2023/09/11 04:57:14;;;;;;;15.10;13.53;;;;;;;;;;4994123;28;20427;-70
2023/09/11 04:59:42;;;;;;;19.37;14.50;;;;;;;;;;4994042;28;20416;-70
2023/09/11 05:02:07;;;;;;;14.30;12.90;;;;;;;;;;4994327;28;20558;-70
2023/09/11 05:04:34;;;;;;;12.87;11.33;;;;;;;;;;4993236;28;20519;-71
2023/09/11 05:07:00;;;;;;;13.43;11.70;;;;;;;;;;4993827;28;20454;-71
2023/09/11 05:09:25;;;;;;;13.30;11.87;;;;;;;;;;4992954;28;20804;-69
2023/09/11 05:11:51;;;;;;;12.97;11.53;;;;;;;;;;4993505;28;20515;-68
2023/09/11 05:14:17;;;;;;;13.27;11.70;;;;;;;;;;4993948;28;20423;-70
2023/09/11 05:16:43;;;;;;;13.60;12.10;;;;;;;;;;4993900;28;20482;-71
2023/09/11 05:19:09;;;;;;;16.23;14.23;;;;;;;;;;4993639;28;20947;-71
2023/09/11 05:21:36;;;;;;;13.77;12.33;;;;;;;;;;5006311;28;20427;-69
2023/09/11 05:24:02;;;;;;;19.70;13.17;;;;;;;;;;5013098;28;20407;-69
2023/09/11 05:26:28;;;;;;;17.10;15.07;;;;;;;;;;5013225;28;20411;-69
2023/09/11 05:28:54;;;;;;;15.00;13.40;;;;;;;;;;5011735;28;20518;-69
2023/09/11 05:31:20;;;;;;;13.87;10.97;;;;;;;;;;5012430;28;20446;-69
2023/09/11 05:33:49;;;;;;;13.43;11.20;;;;;;;;;;4999384;28;20982;-70
2023/09/11 05:36:15;;;;;;;18.27;15.03;;;;;;;;;;4993726;28;20431;-70
2023/09/11 05:38:41;;;;;;;16.20;13.27;;;;;;;;;;4993703;28;20440;-70
2023/09/11 05:41:07;;;;;;;13.50;12.10;;;;;;;;;;4993744;28;20822;-70
2023/09/11 05:43:33;;;;;;;11.80;10.57;;;;;;;;;;4998931;28;20416;-70
2023/09/11 05:45:59;;;;;;;10.17;8.70;;;;;;;;;;4993842;28;20467;-70
2023/09/11 05:48:25;;;;;;;13.47;10.10;;;;;;;;;;4994016;28;21018;-70
2023/09/11 05:50:51;;;;;;;9.23;8.23;;;;;;;;;;4995215;28;20467;-70
2023/09/11 05:53:17;;;;;;;10.37;8.97;;;;;;;;;;4996834;28;20424;-70
2023/09/11 05:55:43;;;;;;;11.17;9.73;;;;;;;;;;5014001;28;20422;-70
2023/09/11 05:58:09;;;;;;;9.23;8.37;;;;;;;;;;5013474;28;20430;-69
2023/09/11 06:00:35;;;;;;;10.03;9.03;;;;;;;;;;5013770;28;20415;-70
2023/09/11 06:03:01;;;;;;;8.67;7.87;;;;;;;;;;5010837;28;20427;-72
2023/09/11 06:05:28;;;;;;;11.33;8.47;;;;;;;;;;4995834;28;20542;-70
2023/09/11 06:07:54;;;;;;;10.13;7.23;;;;;;;;;;5011124;22;20494;-69
2023/09/11 06:10:20;;;;;;;10.60;8.83;;;;;;;;;;5011072;28;20435;-69
2023/09/11 06:12:47;;;;;;;12.00;9.13;;;;;;;;;;5012548;28;20407;-69
2023/09/11 06:15:14;;;;;;;10.70;7.90;;;;;;;;;;5012279;28;20417;-70
2023/09/11 06:17:40;;;;;;;9.33;8.30;;;;;;;;;;5014404;28;20430;-70
2023/09/11 06:20:09;;;;;;;9.20;8.37;;;;;;;;;;5032636;28;20402;-70
2023/09/11 06:22:35;;;;;;;10.17;9.17;;;;;;;;;;5033146;28;20206;-70
2023/09/11 06:25:02;;;;;;;9.60;8.80;;;;;;;;;;5032284;28;20832;-71
2023/09/11 06:27:28;;;;;;;10.63;9.67;;;;;;;;;;5013369;28;20419;-70
2023/09/11 06:29:55;;;;;;;11.17;10.20;;;;;;;;;;5013020;28;20418;-70
2023/09/11 06:32:21;;;;;;;9.87;9.10;;;;;;;;;;5012475;28;20442;-70
2023/09/11 06:34:47;;;;;;;10.43;9.53;;;;;;;;;;5012931;28;20825;-73
2023/09/11 06:37:13;;;;;;;11.27;10.13;;;;;;;;;;5030481;28;20426;-73
2023/09/11 06:39:39;;;;;;;12.03;10.90;;;;;;;;;;5031865;28;20996;-73
2023/09/11 06:42:05;;;;;;;11.30;10.33;;;;;;;;;;5012144;28;20515;-73
2023/09/11 06:44:31;;;;;;;11.53;10.40;;;;;;;;;;5019506;28;20496;-73
2023/09/11 06:46:57;;;;;;;10.73;9.80;;;;;;;;;;5016454;28;20419;-73
2023/09/11 06:49:24;;;;;;;10.87;10.07;;;;;;;;;;5012005;28;20434;-73
2023/09/11 06:51:50;;;;;;;10.63;9.63;;;;;;;;;;5016396;28;20485;-73
2023/09/11 06:54:16;;;;;;;9.57;8.83;;;;;;;;;;5013837;28;20427;-72
2023/09/11 06:56:42;;;;;;;10.90;9.90;;;;;;;;;;5010814;28;20454;-73
2023/09/11 06:59:08;;;;;;;11.50;10.57;;;;;;;;;;5011875;28;20449;-73
2023/09/11 07:01:38;;;;;;;9.90;9.00;;;;;;;;;;5011326;28;20926;-72
2023/09/11 07:04:06;;;;;;;10.80;9.90;;;;;;;;;;5023870;28;20917;-70
2023/09/11 07:06:32;;;;;;;10.63;9.73;;;;;;;;;;5011816;28;20497;-73
2023/09/11 07:08:59;;;;;;;10.60;9.70;;;;;;;;;;5011705;28;20470;-72
2023/09/11 07:11:27;;;;;;;11.93;10.93;;;;;;;;;;5003873;28;20443;-73
2023/09/11 07:13:54;;;;;;;11.80;10.73;;;;;;;;;;4999746;28;20422;-72
2023/09/11 07:16:21;;;;;;;11.93;11.03;;;;;;;;;;5015692;28;20426;-72
2023/09/11 07:18:47;;;;;;;12.00;10.93;;;;;;;;;;4993063;28;20865;-73
2023/09/11 07:21:13;;;;;;;11.60;10.40;;;;;;;;;;4991886;28;20408;-72
2023/09/11 07:23:39;;;;;;;15.10;10.43;;;;;;;;;;4992236;28;20423;-72
2023/09/11 07:26:05;;;;;;;11.80;9.10;;;;;;;;;;4998729;28;20527;-72
2023/09/11 07:28:33;;;;;;;10.67;9.33;;;;;;;;;;5031449;28;20434;-72
2023/09/11 07:30:59;;;;;;;13.33;11.73;;;;;;;;;;4995135;28;20419;-72
2023/09/11 07:33:25;;;;;;;11.00;9.27;;;;;;;;;;4995581;28;20408;-72
2023/09/11 07:35:51;;;;;;;10.93;9.90;;;;;;;;;;5003162;28;20510;-69
2023/09/11 07:38:17;;;;;;;13.30;8.77;;;;;;;;;;5025958;28;20525;-70
2023/09/11 07:40:44;;;;;;;10.17;8.93;;;;;;;;;;5011108;28;20427;-70
2023/09/11 07:43:11;;;;;;;13.53;8.60;;;;;;;;;;5010515;28;20490;-70
2023/09/11 07:45:37;;;;;;;11.63;10.53;;;;;;;;;;5007702;28;20470;-71
2023/09/11 07:48:03;;;;;;;11.30;9.27;;;;;;;;;;5010817;28;20455;-69
2023/09/11 07:50:29;;;;;;;10.10;9.20;;;;;;;;;;5010278;28;20434;-69
2023/09/11 07:52:55;;;;;;;11.03;10.10;;;;;;;;;;5010655;28;20922;-69
2023/09/11 07:55:20;;;;;;;11.20;9.70;;;;;;;;;;5011167;28;21376;-69
2023/09/11 07:57:46;;;;;;;12.13;8.50;;;;;;;;;;5010269;28;20538;-69
2023/09/11 08:00:13;;;;;;;8.67;7.77;;;;;;;;;;5010316;28;20414;-69
2023/09/11 08:02:39;;;;;;;10.20;9.20;;;;;;;;;;5010800;28;20460;-69
2023/09/11 08:05:05;;;;;;;12.63;9.07;;;;;;;;;;5010590;28;20457;-69
2023/09/11 08:07:31;;;;;;;10.50;9.47;;;;;;;;;;5010792;28;20473;-69
2023/09/11 08:09:59;;;;;;;12.23;9.87;;;;;;;;;;5011130;28;20427;-69
2023/09/11 08:12:25;;;;;;;9.03;8.20;;;;;;;;;;5009654;28;20878;-69
2023/09/11 08:14:51;;;;;;;10.67;9.67;;;;;;;;;;5009809;28;20466;-69
2023/09/11 08:17:17;;;;;;;9.00;8.10;;;;;;;;;;5009223;28;20647;-69
2023/09/11 08:19:43;;;;;;;11.90;9.90;;;;;;;;;;5008674;28;20262;-69
2023/09/11 08:22:09;;;;;;;10.37;9.47;;;;;;;;;;5009777;28;20195;-70
2023/09/11 08:24:34;;;;;;;11.13;9.17;;;;;;;;;;5010436;28;20501;-70
2023/09/11 08:27:00;;;;;;;11.63;10.63;;;;;;;;;;5009669;28;20651;-70
2023/09/11 08:29:26;;;;;;;9.90;9.10;;;;;;;;;;5009655;28;20287;-69
2023/09/11 08:31:52;;;;;;;15.63;11.07;;;;;;;;;;5010229;28;20422;-70
2023/09/11 08:34:18;;;;;;;12.53;9.93;;;;;;;;;;5010109;28;20613;-71
2023/09/11 08:36:44;;;;;;;11.10;9.90;;;;;;;;;;5010134;28;20259;-70
2023/09/11 08:39:10;;;;;;;11.57;9.77;;;;;;;;;;5010327;28;20239;-71
2023/09/11 08:41:36;;;;;;;10.20;9.30;;;;;;;;;;5009271;28;20199;-71
2023/09/11 08:44:02;;;;;;;8.30;7.43;;;;;;;;;;5008752;28;20614;-71
2023/09/11 08:46:32;;;;;;;10.73;9.73;;;;;;;;;;5010355;28;20434;-70
2023/09/11 08:49:00;;;;;;;7.50;6.30;;;;;;;;;;5010361;28;20427;-70
2023/09/11 08:51:30;;;;;;;10.43;9.20;;;;;;;;;;5013230;28;20933;-71
2023/09/11 08:53:57;;;;;;;8.87;7.30;;;;;;;;;;5012270;28;20965;-70
2023/09/11 08:56:23;;;;;;;8.80;7.93;;;;;;;;;;5013612;28;20415;-71
2023/09/11 08:58:51;;;;;;;11.70;8.33;;;;;;;;;;5013302;28;20449;-71
2023/09/11 09:01:17;;;;;;;7.90;7.10;;;;;;;;;;5013198;28;20474;-71
2023/09/11 09:03:43;;;;;;;12.77;8.77;;;;;;;;;;5013302;28;20454;-71
2023/09/11 09:06:09;;;;;;;8.57;7.77;;;;;;;;;;5013346;28;20465;-71
2023/09/11 09:08:36;;;;;;;10.50;8.60;;;;;;;;;;5012976;28;20477;-71
2023/09/11 09:11:02;;;;;;;9.07;8.20;;;;;;;;;;5012950;28;20482;-71
2023/09/11 09:13:29;;;;;;;8.67;7.87;;;;;;;;;;5013187;28;20407;-71
2023/09/11 09:15:54;;;;;;;7.10;6.40;;;;;;;;;;5013179;28;20439;-71
2023/09/11 09:18:20;;;;;;;8.47;7.40;;;;;;;;;;5013036;28;20805;-71
2023/09/11 09:20:46;;;;;;;10.40;6.43;;;;;;;;;;5012748;28;20407;-71
2023/09/11 09:23:12;;;;;;;8.00;6.90;;;;;;;;;;5012861;28;20415;-71
2023/09/11 09:25:39;;;;;;;8.70;7.70;;;;;;;;;;5012885;28;20471;-71
2023/09/11 09:28:05;;;;;;;10.80;7.60;;;;;;;;;;5012881;28;20518;-71
2023/09/11 09:30:31;;;;;;;8.30;7.50;;;;;;;;;;5012591;28;20514;-71
2023/09/11 09:32:58;;;;;;;8.33;7.53;;;;;;;;;;5012773;28;20461;-71
2023/09/11 09:35:30;;;;;;;8.53;7.73;;;;;;;;;;5012728;28;20780;-71
2023/09/11 09:37:57;;;;;;;10.17;8.10;;;;;;;;;;5012567;28;20469;-71
2023/09/11 09:40:39;;;;;;;9.50;8.53;;;;;;;;;;5012389;28;20438;-71
2023/09/11 09:43:06;;;;;;;8.67;7.97;;;;;;;;;;5002957;28;20440;-71
2023/09/11 09:45:42;;;;;;;8.13;7.37;;;;;;;;;;4999202;28;20475;-71
2023/09/11 09:48:09;;;;;;;8.03;7.33;;;;;;;;;;4991462;28;20455;-71
2023/09/11 09:50:54;;;;;;;25.03;9.37;;;;;;;;;;4992446;28;20523;-71
2023/09/11 09:53:21;;;;;;;7.30;6.70;;;;;;;;;;4992654;28;20459;-71
2023/09/11 09:55:47;;;;;;;7.90;7.20;;;;;;;;;;4992531;28;20407;-71
2023/09/11 09:58:13;;;;;;;16.73;9.17;;;;;;;;;;4992741;28;20458;-69
2023/09/11 10:00:39;;;;;;;15.40;10.13;;;;;;;;;;4992423;28;20415;-69
2023/09/11 10:03:05;;;;;;;7.70;7.07;;;;;;;;;;4992634;28;21003;-69
2023/09/11 10:05:31;;;;;;;8.17;7.37;;;;;;;;;;4992455;28;20478;-69
2023/09/11 10:07:59;;;;;;;9.10;8.27;;;;;;;;;;4992544;28;20572;-69
2023/09/11 10:10:26;;;;;;;7.70;7.00;;;;;;;;;;4992086;28;20543;-69
2023/09/11 10:12:54;;;;;;;8.13;7.30;;;;;;;;;;4992773;28;20423;-69
2023/09/11 10:15:21;;;;;;;7.80;7.10;;;;;;;;;;4992548;28;20424;-69
2023/09/11 10:17:47;;;;;;;6.97;6.13;;;;;;;;;;4992439;28;20442;-69
2023/09/11 10:20:13;;;;;;;10.13;7.63;;;;;;;;;;4992482;28;20420;-69
2023/09/11 10:22:39;;;;;;;9.50;8.40;;;;;;;;;;4992302;28;20513;-69
2023/09/11 10:25:06;;;;;;;9.03;8.13;;;;;;;;;;4992717;28;20463;-70
2023/09/11 10:27:32;;;;;;;9.00;8.10;;;;;;;;;;4991350;28;20250;-69
2023/09/11 10:30:03;;;;;;;8.57;7.83;;;;;;;;;;5020135;28;20454;-68
2023/09/11 10:32:34;;;;;;;7.97;7.27;;;;;;;;;;5011997;28;20481;-71
2023/09/11 10:35:01;;;;;;;8.37;7.67;;;;;;;;;;5012131;28;20403;-68
2023/09/11 10:37:30;;;;;;;9.23;8.10;;;;;;;;;;5011972;28;20484;-70
2023/09/11 10:39:57;;;;;;;10.00;7.50;;;;;;;;;;5010627;28;20425;-70
2023/09/11 10:42:23;;;;;;;8.53;7.63;;;;;;;;;;5004373;28;20839;-68
2023/09/11 10:44:53;;;;;;;7.53;6.83;;;;;;;;;;5011490;28;20562;-70
2023/09/11 10:47:19;;;;;;;8.80;7.90;;;;;;;;;;5017840;28;20453;-70
2023/09/11 10:49:49;;;;;;;7.77;7.07;;;;;;;;;;5030910;28;20446;-70
2023/09/11 10:52:16;;;;;;;60.10;18.17;;;;;;;;;;5031360;28;20410;-70
2023/09/11 10:54:42;;;;;;;9.63;8.63;;;;;;;;;;5031637;28;20497;-71
2023/09/11 10:57:08;;;;;;;10.57;9.17;;;;;;;;;;5029845;28;21039;-68
2023/09/11 10:59:35;;;;;;;8.40;7.50;;;;;;;;;;5026098;28;20446;-68
2023/09/11 11:02:02;;;;;;;9.60;8.60;;;;;;;;;;5011346;28;20778;-68
2023/09/11 11:04:31;;;;;;;9.47;8.33;;;;;;;;;;5011529;28;20621;-67
2023/09/11 11:06:59;;;;;;;7.40;6.70;;;;;;;;;;5019321;28;20469;-67
2023/09/11 11:09:24;;;;;;;7.67;7.00;;;;;;;;;;5034465;28;20462;-68
2023/09/11 11:11:50;;;;;;;8.57;7.80;;;;;;;;;;5034513;28;20424;-68
2023/09/11 11:14:17;;;;;;;6.80;6.20;;;;;;;;;;5032396;28;20426;-68
2023/09/11 11:16:55;;;;;;;7.13;6.63;;;;;;;;;;5015328;28;20827;-68
2023/09/11 11:19:25;;;;;;;6.70;6.20;;;;;;;;;;5015206;28;20430;-68
2023/09/11 11:21:51;;;;;;;7.63;7.03;;;;;;;;;;5014971;28;20473;-68
2023/09/11 11:24:17;;;;;;;7.60;6.80;;;;;;;;;;5016160;28;20513;-69
2023/09/11 11:26:44;;;;;;;7.30;6.80;;;;;;;;;;5015260;28;20430;-69
2023/09/11 11:29:10;;;;;;;7.07;6.47;;;;;;;;;;5015059;28;20442;-69
2023/09/11 11:31:37;;;;;;;7.53;6.93;;;;;;;;;;5017485;28;20432;-70
2023/09/11 11:34:03;;;;;;;7.63;7.03;;;;;;;;;;5034799;28;20414;-70
2023/09/11 11:36:30;;;;;;;8.00;7.30;;;;;;;;;;5034797;28;20421;-70
2023/09/11 11:38:56;;;;;;;7.77;7.07;;;;;;;;;;5032620;28;20516;-70
2023/09/11 11:41:23;;;;;;;7.03;6.50;;;;;;;;;;5015136;28;20445;-76
2023/09/11 11:43:49;;;;;;;6.43;6.03;;;;;;;;;;4995267;28;20415;-70
2023/09/11 11:46:15;;;;;;;6.87;6.37;;;;;;;;;;4995102;28;20833;-70
2023/09/11 11:48:42;;;;;;;6.53;5.93;;;;;;;;;;4994939;28;20438;-70
2023/09/11 11:51:08;;;;;;;6.70;6.20;;;;;;;;;;5014102;28;20437;-70
2023/09/11 11:53:35;;;;;;;7.90;7.20;;;;;;;;;;5014532;28;20426;-70
2023/09/11 11:56:05;;;;;;;24.63;9.67;;;;;;;;;;5016872;28;21111;-70
2023/09/11 11:58:31;;;;;;;7.83;7.13;;;;;;;;;;5025905;28;20486;-70
2023/09/11 12:00:58;;;;;;;7.43;6.83;;;;;;;;;;5012762;28;20481;-69
2023/09/11 12:03:25;;;;;;;7.90;7.30;;;;;;;;;;5012420;28;20411;-69
2023/09/11 12:05:51;;;;;;;8.53;7.03;;;;;;;;;;5012073;28;20554;-69
2023/09/11 12:08:17;;;;;;;7.20;6.70;;;;;;;;;;5035800;22;20522;-69
2023/09/11 12:10:50;;;;;;;9.27;7.90;;;;;;;;;;5011819;28;20414;-69
2023/09/11 12:13:17;;;;;;;8.93;7.00;;;;;;;;;;5012798;28;20399;-69
2023/09/11 12:15:43;;;;;;;9.50;7.00;;;;;;;;;;5012365;28;20989;-69
2023/09/11 12:18:13;;;;;;;7.60;7.10;;;;;;;;;;5014400;28;20426;-70
2023/09/11 12:20:39;;;;;;;8.00;7.30;;;;;;;;;;5014380;28;20414;-69
2023/09/11 12:23:05;;;;;;;7.60;6.80;;;;;;;;;;5014965;28;20410;-71
2023/09/11 12:25:31;;;;;;;11.97;8.20;;;;;;;;;;5014549;28;20462;-69
2023/09/11 12:27:57;;;;;;;7.60;6.07;;;;;;;;;;5014511;28;20184;-69
2023/09/11 12:30:23;;;;;;;7.87;7.20;;;;;;;;;;5014156;28;20403;-69
2023/09/11 12:32:49;;;;;;;7.80;7.10;;;;;;;;;;5014226;28;20407;-70
2023/09/11 12:35:29;;;;;;;9.50;7.70;;;;;;;;;;5014315;28;20421;-70
2023/09/11 12:37:55;;;;;;;7.30;6.70;;;;;;;;;;5014013;28;20414;-70
2023/09/11 12:40:21;;;;;;;7.20;6.60;;;;;;;;;;5012810;28;20422;-70
2023/09/11 12:42:47;;;;;;;8.03;7.40;;;;;;;;;;5013982;28;20415;-69
2023/09/11 12:45:13;;;;;;;9.43;6.80;;;;;;;;;;5014438;28;20517;-70
2023/09/11 12:47:39;;;;;;;8.03;6.60;;;;;;;;;;5014024;28;20410;-70
2023/09/11 12:50:06;;;;;;;7.87;7.27;;;;;;;;;;5013775;28;20522;-70
2023/09/11 12:52:32;;;;;;;7.43;6.80;;;;;;;;;;5013622;28;20411;-70
2023/09/11 12:54:58;;;;;;;6.73;6.20;;;;;;;;;;5013780;28;20489;-70
2023/09/11 12:57:24;;;;;;;7.97;7.17;;;;;;;;;;5012464;28;20431;-70
2023/09/11 12:59:50;;;;;;;6.73;6.13;;;;;;;;;;5013603;28;20469;-70
2023/09/11 13:02:16;;;;;;;9.43;7.47;;;;;;;;;;5013394;28;20439;-70
2023/09/11 13:04:42;;;;;;;7.37;6.83;;;;;;;;;;5013529;28;20495;-70
2023/09/11 13:07:08;;;;;;;9.43;7.37;;;;;;;;;;5012266;28;20434;-70
2023/09/11 13:09:35;;;;;;;7.67;6.80;;;;;;;;;;5013406;28;20443;-70
2023/09/11 13:12:01;;;;;;;9.93;7.27;;;;;;;;;;5013698;28;20426;-70
2023/09/11 13:14:27;;;;;;;8.80;7.03;;;;;;;;;;5013700;28;20411;-70
2023/09/11 13:16:53;;;;;;;7.50;6.80;;;;;;;;;;5013763;28;20417;-72
2023/09/11 13:19:19;;;;;;;8.67;6.77;;;;;;;;;;5013354;28;20445;-71
2023/09/11 13:21:46;;;;;;;7.43;6.77;;;;;;;;;;5012699;28;20415;-72
2023/09/11 13:24:12;;;;;;;7.87;6.93;;;;;;;;;;5014847;28;20258;-72
2023/09/11 13:26:38;;;;;;;12.00;7.10;;;;;;;;;;5013734;28;20641;-72
2023/09/11 13:29:04;;;;;;;14.80;9.30;;;;;;;;;;5011497;28;20199;-72
2023/09/11 13:31:30;;;;;;;8.10;7.30;;;;;;;;;;5011785;28;20981;-72
2023/09/11 13:33:56;;;;;;;14.03;6.77;;;;;;;;;;5013651;28;20450;-72
2023/09/11 13:36:22;;;;;;;7.47;6.70;;;;;;;;;;5013413;28;20191;-72
2023/09/11 13:38:48;;;;;;;6.70;6.20;;;;;;;;;;5011797;28;20204;-72
2023/09/11 13:41:14;;;;;;;7.77;7.17;;;;;;;;;;5012848;28;20472;-72
2023/09/11 13:43:40;;;;;;;9.07;7.30;;;;;;;;;;5012975;28;20423;-72
2023/09/11 13:46:06;;;;;;;7.20;6.50;;;;;;;;;;5012963;28;20317;-72
2023/09/11 13:48:32;;;;;;;7.40;6.70;;;;;;;;;;5012894;28;20786;-71
2023/09/11 13:50:58;;;;;;;12.27;6.90;;;;;;;;;;5011399;28;20418;-72
2023/09/11 13:53:24;;;;;;;8.00;7.40;;;;;;;;;;5012117;28;20196;-70
2023/09/11 13:55:50;;;;;;;8.13;7.33;;;;;;;;;;5011559;28;20809;-70
2023/09/11 13:58:16;;;;;;;10.17;7.50;;;;;;;;;;5012541;28;20439;-71
2023/09/11 14:00:42;;;;;;;7.60;6.80;;;;;;;;;;5013112;28;20425;-71
2023/09/11 14:03:11;;;;;;;8.90;6.97;;;;;;;;;;5011682;28;20514;-71
2023/09/11 14:05:37;;;;;;;10.47;7.07;;;;;;;;;;5010851;28;20831;-74
2023/09/11 14:08:04;;;;;;;8.63;6.77;;;;;;;;;;5012567;28;20415;-69
2023/09/11 14:10:30;;;;;;;10.13;6.50;;;;;;;;;;5007076;28;20446;-68
2023/09/11 14:12:56;;;;;;;8.30;7.60;;;;;;;;;;5008436;28;20434;-69
2023/09/11 14:15:22;;;;;;;8.73;6.90;;;;;;;;;;5009296;28;20481;-68
2023/09/11 14:17:48;;;;;;;6.53;6.00;;;;;;;;;;5005340;28;20261;-68